EPZG/IEG METAR and TAF weather

Enter ICAO airport designator
Station Type Date Time Source
EPZG METAR 2020/03/31 20:00 UTC NOAA

EPZG 312000Z 24003KT CAVOK M03/M09 Q1027


Station Type Date Time Source
EPZG Decoded METAR 2020/03/31 20:00 UTC NOAA

Zielona Gora, Poland (EPZG) 51-56N 015-32E 192M
Mar 31, 2020 - 04:00 PM EDT / 2020.03.31 2000 UTC
Wind: from the WSW (240 degrees) at 3 MPH (3 KT):0
Visibility: greater than 7 mile(s):0
Temperature: 26 F (-3 C)
Dew Point: 15 F (-9 C)
Relative Humidity: 63%
Pressure (altimeter): 30.33 in. Hg (1027 hPa)
ob: EPZG 312000Z 24003KT CAVOK M03/M09 Q1027
cycle: 20

Station Type Date Time Source
EPZG TAF 2012/06/28 21:49 UTC NOAA

TAF EPZG 282000Z 2821/2906 VRB02KT CAVOK
TEMPO 2823/2904 5000 BR PROB30 2900/2904 1500 BR BKN005

Example: see airport list